sensor_id;sensor_type;location;lat;lon;timestamp;P1;durP1;ratioP1;P2;durP2;ratioP2
58621;SDS011;44389;51.578;5.456;2023-09-30T00:01:20;0.20;;;0.20;;
58621;SDS011;44389;51.578;5.456;2023-09-30T00:03:47;0.17;;;0.17;;
58621;SDS011;44389;51.578;5.456;2023-09-30T00:06:12;0.22;;;0.22;;
58621;SDS011;44389;51.578;5.456;2023-09-30T00:08:38;0.10;;;0.10;;
58621;SDS011;44389;51.578;5.456;2023-09-30T00:11:05;0.20;;;0.20;;
58621;SDS011;44389;51.578;5.456;2023-09-30T00:13:31;0.20;;;0.20;;
58621;SDS011;44389;51.578;5.456;2023-09-30T00:15:57;0.10;;;0.10;;
58621;SDS011;44389;51.578;5.456;2023-09-30T00:18:22;0.20;;;0.20;;
58621;SDS011;44389;51.578;5.456;2023-09-30T00:20:48;0.20;;;0.20;;
58621;SDS011;44389;51.578;5.456;2023-09-30T00:23:13;0.20;;;0.20;;
58621;SDS011;44389;51.578;5.456;2023-09-30T00:25:38;0.15;;;0.15;;
58621;SDS011;44389;51.578;5.456;2023-09-30T00:28:04;0.30;;;0.30;;
58621;SDS011;44389;51.578;5.456;2023-09-30T00:30:30;0.20;;;0.20;;
58621;SDS011;44389;51.578;5.456;2023-09-30T00:32:55;0.20;;;0.20;;
58621;SDS011;44389;51.578;5.456;2023-09-30T00:35:20;0.20;;;0.20;;
58621;SDS011;44389;51.578;5.456;2023-09-30T00:37:46;0.20;;;0.20;;
58621;SDS011;44389;51.578;5.456;2023-09-30T00:40:11;0.20;;;0.20;;
58621;SDS011;44389;51.578;5.456;2023-09-30T00:42:37;0.20;;;0.20;;
58621;SDS011;44389;51.578;5.456;2023-09-30T00:45:03;0.20;;;0.20;;
58621;SDS011;44389;51.578;5.456;2023-09-30T00:47:30;0.20;;;0.20;;
58621;SDS011;44389;51.578;5.456;2023-09-30T00:49:55;0.20;;;0.20;;
58621;SDS011;44389;51.578;5.456;2023-09-30T00:52:21;0.20;;;0.20;;
58621;SDS011;44389;51.578;5.456;2023-09-30T00:54:47;0.20;;;0.20;;
58621;SDS011;44389;51.578;5.456;2023-09-30T00:57:13;0.20;;;0.20;;
58621;SDS011;44389;51.578;5.456;2023-09-30T00:59:39;0.20;;;0.20;;
58621;SDS011;44389;51.578;5.456;2023-09-30T01:02:05;0.20;;;0.20;;
58621;SDS011;44389;51.578;5.456;2023-09-30T01:04:31;0.20;;;0.20;;
58621;SDS011;44389;51.578;5.456;2023-09-30T01:06:56;0.20;;;0.20;;
58621;SDS011;44389;51.578;5.456;2023-09-30T01:09:22;0.20;;;0.20;;
58621;SDS011;44389;51.578;5.456;2023-09-30T01:11:48;0.20;;;0.20;;
58621;SDS011;44389;51.578;5.456;2023-09-30T01:14:29;0.20;;;0.20;;
58621;SDS011;44389;51.578;5.456;2023-09-30T01:16:56;0.20;;;0.20;;
58621;SDS011;44389;51.578;5.456;2023-09-30T01:19:22;0.10;;;0.10;;
58621;SDS011;44389;51.578;5.456;2023-09-30T01:21:49;0.20;;;0.20;;
58621;SDS011;44389;51.578;5.456;2023-09-30T01:24:19;0.20;;;0.20;;
58621;SDS011;44389;51.578;5.456;2023-09-30T01:26:45;0.10;;;0.10;;
58621;SDS011;44389;51.578;5.456;2023-09-30T01:29:10;0.20;;;0.20;;
58621;SDS011;44389;51.578;5.456;2023-09-30T01:31:38;0.20;;;0.20;;
58621;SDS011;44389;51.578;5.456;2023-09-30T01:34:04;0.17;;;0.17;;
58621;SDS011;44389;51.578;5.456;2023-09-30T01:36:30;0.17;;;0.17;;
58621;SDS011;44389;51.578;5.456;2023-09-30T01:38:56;0.20;;;0.20;;
58621;SDS011;44389;51.578;5.456;2023-09-30T01:41:21;0.10;;;0.10;;
58621;SDS011;44389;51.578;5.456;2023-09-30T01:43:47;0.20;;;0.20;;
58621;SDS011;44389;51.578;5.456;2023-09-30T01:46:13;0.17;;;0.17;;
58621;SDS011;44389;51.578;5.456;2023-09-30T01:48:39;0.20;;;0.20;;
58621;SDS011;44389;51.578;5.456;2023-09-30T01:51:04;0.10;;;0.10;;
58621;SDS011;44389;51.578;5.456;2023-09-30T01:53:29;0.20;;;0.20;;
58621;SDS011;44389;51.578;5.456;2023-09-30T01:55:55;0.20;;;0.20;;
58621;SDS011;44389;51.578;5.456;2023-09-30T01:58:20;0.20;;;0.20;;
58621;SDS011;44389;51.578;5.456;2023-09-30T02:00:45;0.20;;;0.20;;
58621;SDS011;44389;51.578;5.456;2023-09-30T02:03:11;0.20;;;0.20;;
58621;SDS011;44389;51.578;5.456;2023-09-30T02:05:37;0.20;;;0.20;;
58621;SDS011;44389;51.578;5.456;2023-09-30T02:08:04;0.20;;;0.20;;
58621;SDS011;44389;51.578;5.456;2023-09-30T02:10:30;0.20;;;0.20;;
58621;SDS011;44389;51.578;5.456;2023-09-30T02:12:56;0.20;;;0.20;;
58621;SDS011;44389;51.578;5.456;2023-09-30T02:15:21;0.20;;;0.20;;
58621;SDS011;44389;51.578;5.456;2023-09-30T02:17:47;0.20;;;0.20;;
58621;SDS011;44389;51.578;5.456;2023-09-30T02:20:13;0.10;;;0.10;;
58621;SDS011;44389;51.578;5.456;2023-09-30T02:22:43;0.20;;;0.20;;
58621;SDS011;44389;51.578;5.456;2023-09-30T02:25:09;0.20;;;0.20;;
58621;SDS011;44389;51.578;5.456;2023-09-30T02:27:35;0.20;;;0.20;;
58621;SDS011;44389;51.578;5.456;2023-09-30T02:30:00;0.20;;;0.20;;
58621;SDS011;44389;51.578;5.456;2023-09-30T02:32:25;0.20;;;0.20;;
58621;SDS011;44389;51.578;5.456;2023-09-30T02:34:51;0.20;;;0.20;;
58621;SDS011;44389;51.578;5.456;2023-09-30T02:37:16;0.20;;;0.20;;
58621;SDS011;44389;51.578;5.456;2023-09-30T02:39:43;0.20;;;0.20;;
58621;SDS011;44389;51.578;5.456;2023-09-30T02:42:09;0.13;;;0.13;;
58621;SDS011;44389;51.578;5.456;2023-09-30T02:44:35;0.20;;;0.20;;
58621;SDS011;44389;51.578;5.456;2023-09-30T02:47:00;0.20;;;0.20;;
58621;SDS011;44389;51.578;5.456;2023-09-30T02:49:26;0.15;;;0.15;;
58621;SDS011;44389;51.578;5.456;2023-09-30T02:51:51;0.20;;;0.20;;
58621;SDS011;44389;51.578;5.456;2023-09-30T02:54:16;0.20;;;0.20;;
58621;SDS011;44389;51.578;5.456;2023-09-30T02:56:42;0.20;;;0.20;;
58621;SDS011;44389;51.578;5.456;2023-09-30T02:59:07;0.20;;;0.20;;
58621;SDS011;44389;51.578;5.456;2023-09-30T03:01:33;0.20;;;0.20;;
58621;SDS011;44389;51.578;5.456;2023-09-30T03:03:59;0.20;;;0.20;;
58621;SDS011;44389;51.578;5.456;2023-09-30T03:06:24;0.20;;;0.20;;
58621;SDS011;44389;51.578;5.456;2023-09-30T03:08:50;0.20;;;0.20;;
58621;SDS011;44389;51.578;5.456;2023-09-30T03:11:16;0.20;;;0.20;;
58621;SDS011;44389;51.578;5.456;2023-09-30T03:13:42;0.20;;;0.20;;
58621;SDS011;44389;51.578;5.456;2023-09-30T03:16:08;0.20;;;0.20;;
58621;SDS011;44389;51.578;5.456;2023-09-30T03:18:34;0.20;;;0.20;;
58621;SDS011;44389;51.578;5.456;2023-09-30T03:21:00;0.20;;;0.20;;
58621;SDS011;44389;51.578;5.456;2023-09-30T03:23:27;0.20;;;0.20;;
58621;SDS011;44389;51.578;5.456;2023-09-30T03:25:58;0.20;;;0.20;;
58621;SDS011;44389;51.578;5.456;2023-09-30T03:28:24;0.20;;;0.20;;
58621;SDS011;44389;51.578;5.456;2023-09-30T03:30:49;0.20;;;0.20;;
58621;SDS011;44389;51.578;5.456;2023-09-30T03:33:15;0.20;;;0.20;;
58621;SDS011;44389;51.578;5.456;2023-09-30T03:35:40;0.20;;;0.20;;
58621;SDS011;44389;51.578;5.456;2023-09-30T03:38:06;0.20;;;0.20;;
58621;SDS011;44389;51.578;5.456;2023-09-30T03:42:59;0.20;;;0.20;;
58621;SDS011;44389;51.578;5.456;2023-09-30T03:45:25;0.20;;;0.20;;
58621;SDS011;44389;51.578;5.456;2023-09-30T03:47:51;0.20;;;0.20;;
58621;SDS011;44389;51.578;5.456;2023-09-30T03:50:16;0.20;;;0.20;;
58621;SDS011;44389;51.578;5.456;2023-09-30T03:52:42;0.20;;;0.20;;
58621;SDS011;44389;51.578;5.456;2023-09-30T03:55:12;0.20;;;0.20;;
58621;SDS011;44389;51.578;5.456;2023-09-30T03:57:39;0.20;;;0.20;;
58621;SDS011;44389;51.578;5.456;2023-09-30T04:00:05;0.20;;;0.20;;
58621;SDS011;44389;51.578;5.456;2023-09-30T04:02:31;0.20;;;0.20;;
58621;SDS011;44389;51.578;5.456;2023-09-30T04:04:57;0.20;;;0.20;;
58621;SDS011;44389;51.578;5.456;2023-09-30T04:07:22;0.17;;;0.17;;
58621;SDS011;44389;51.578;5.456;2023-09-30T04:09:53;0.10;;;0.10;;
58621;SDS011;44389;51.578;5.456;2023-09-30T04:12:19;0.20;;;0.20;;
58621;SDS011;44389;51.578;5.456;2023-09-30T04:14:44;0.20;;;0.20;;
58621;SDS011;44389;51.578;5.456;2023-09-30T04:17:10;0.10;;;0.10;;
58621;SDS011;44389;51.578;5.456;2023-09-30T04:19:35;0.10;;;0.10;;
58621;SDS011;44389;51.578;5.456;2023-09-30T04:22:00;0.20;;;0.20;;
58621;SDS011;44389;51.578;5.456;2023-09-30T04:24:26;0.10;;;0.10;;
58621;SDS011;44389;51.578;5.456;2023-09-30T04:26:53;0.20;;;0.20;;
58621;SDS011;44389;51.578;5.456;2023-09-30T04:29:25;0.20;;;0.20;;
58621;SDS011;44389;51.578;5.456;2023-09-30T04:31:54;0.13;;;0.13;;
58621;SDS011;44389;51.578;5.456;2023-09-30T04:34:19;0.20;;;0.20;;
58621;SDS011;44389;51.578;5.456;2023-09-30T04:36:45;0.20;;;0.20;;
58621;SDS011;44389;51.578;5.456;2023-09-30T04:39:10;0.20;;;0.20;;
58621;SDS011;44389;51.578;5.456;2023-09-30T04:41:37;0.28;;;0.28;;
58621;SDS011;44389;51.578;5.456;2023-09-30T04:44:06;0.20;;;0.20;;
58621;SDS011;44389;51.578;5.456;2023-09-30T04:46:31;0.17;;;0.17;;
58621;SDS011;44389;51.578;5.456;2023-09-30T04:48:57;0.20;;;0.20;;
58621;SDS011;44389;51.578;5.456;2023-09-30T04:51:22;0.20;;;0.20;;
58621;SDS011;44389;51.578;5.456;2023-09-30T04:53:50;0.20;;;0.20;;
58621;SDS011;44389;51.578;5.456;2023-09-30T04:56:16;0.20;;;0.20;;
58621;SDS011;44389;51.578;5.456;2023-09-30T04:58:41;0.20;;;0.20;;
58621;SDS011;44389;51.578;5.456;2023-09-30T05:01:07;0.20;;;0.20;;
58621;SDS011;44389;51.578;5.456;2023-09-30T05:03:33;0.25;;;0.25;;
58621;SDS011;44389;51.578;5.456;2023-09-30T05:06:00;0.20;;;0.20;;
58621;SDS011;44389;51.578;5.456;2023-09-30T05:08:25;0.20;;;0.20;;
58621;SDS011;44389;51.578;5.456;2023-09-30T05:10:51;0.10;;;0.10;;
58621;SDS011;44389;51.578;5.456;2023-09-30T05:13:20;0.13;;;0.13;;
58621;SDS011;44389;51.578;5.456;2023-09-30T05:15:45;0.20;;;0.20;;
58621;SDS011;44389;51.578;5.456;2023-09-30T05:18:11;0.20;;;0.20;;
58621;SDS011;44389;51.578;5.456;2023-09-30T05:20:37;0.28;;;0.28;;
58621;SDS011;44389;51.578;5.456;2023-09-30T05:23:03;0.20;;;0.20;;
58621;SDS011;44389;51.578;5.456;2023-09-30T05:25:29;0.20;;;0.20;;
58621;SDS011;44389;51.578;5.456;2023-09-30T05:27:54;0.20;;;0.20;;
58621;SDS011;44389;51.578;5.456;2023-09-30T05:30:20;0.20;;;0.20;;
58621;SDS011;44389;51.578;5.456;2023-09-30T05:32:45;0.13;;;0.13;;
58621;SDS011;44389;51.578;5.456;2023-09-30T05:35:11;0.20;;;0.20;;
58621;SDS011;44389;51.578;5.456;2023-09-30T05:37:41;0.20;;;0.20;;
58621;SDS011;44389;51.578;5.456;2023-09-30T05:40:07;0.28;;;0.28;;
58621;SDS011;44389;51.578;5.456;2023-09-30T05:42:54;0.10;;;0.10;;
58621;SDS011;44389;51.578;5.456;2023-09-30T05:45:23;0.20;;;0.20;;
58621;SDS011;44389;51.578;5.456;2023-09-30T05:47:49;0.20;;;0.20;;
58621;SDS011;44389;51.578;5.456;2023-09-30T05:50:14;0.20;;;0.20;;
58621;SDS011;44389;51.578;5.456;2023-09-30T05:52:41;0.20;;;0.20;;
58621;SDS011;44389;51.578;5.456;2023-09-30T05:55:08;0.20;;;0.20;;
58621;SDS011;44389;51.578;5.456;2023-09-30T05:57:33;0.20;;;0.20;;
58621;SDS011;44389;51.578;5.456;2023-09-30T06:00:00;0.30;;;0.30;;
58621;SDS011;44389;51.578;5.456;2023-09-30T06:02:26;0.20;;;0.20;;
58621;SDS011;44389;51.578;5.456;2023-09-30T06:04:51;0.20;;;0.20;;
58621;SDS011;44389;51.578;5.456;2023-09-30T06:07:18;0.10;;;0.10;;
58621;SDS011;44389;51.578;5.456;2023-09-30T06:09:45;0.20;;;0.20;;
58621;SDS011;44389;51.578;5.456;2023-09-30T06:12:12;0.20;;;0.20;;
58621;SDS011;44389;51.578;5.456;2023-09-30T06:14:37;0.20;;;0.20;;
58621;SDS011;44389;51.578;5.456;2023-09-30T06:17:02;0.20;;;0.20;;
58621;SDS011;44389;51.578;5.456;2023-09-30T06:19:28;0.20;;;0.20;;
58621;SDS011;44389;51.578;5.456;2023-09-30T06:21:53;0.20;;;0.20;;
58621;SDS011;44389;51.578;5.456;2023-09-30T06:24:19;0.20;;;0.20;;
58621;SDS011;44389;51.578;5.456;2023-09-30T06:26:47;0.20;;;0.20;;
58621;SDS011;44389;51.578;5.456;2023-09-30T06:29:14;0.20;;;0.20;;
58621;SDS011;44389;51.578;5.456;2023-09-30T06:31:39;0.20;;;0.20;;
58621;SDS011;44389;51.578;5.456;2023-09-30T06:34:05;0.30;;;0.30;;
58621;SDS011;44389;51.578;5.456;2023-09-30T06:36:31;0.20;;;0.20;;
58621;SDS011;44389;51.578;5.456;2023-09-30T06:38:57;0.20;;;0.20;;
58621;SDS011;44389;51.578;5.456;2023-09-30T06:41:23;0.20;;;0.20;;
58621;SDS011;44389;51.578;5.456;2023-09-30T06:43:49;0.20;;;0.20;;
58621;SDS011;44389;51.578;5.456;2023-09-30T06:46:14;0.20;;;0.20;;
58621;SDS011;44389;51.578;5.456;2023-09-30T06:48:40;0.25;;;0.25;;
58621;SDS011;44389;51.578;5.456;2023-09-30T06:51:06;0.20;;;0.20;;
58621;SDS011;44389;51.578;5.456;2023-09-30T06:53:31;0.20;;;0.20;;
58621;SDS011;44389;51.578;5.456;2023-09-30T06:55:56;0.20;;;0.20;;
58621;SDS011;44389;51.578;5.456;2023-09-30T06:58:22;0.20;;;0.20;;
58621;SDS011;44389;51.578;5.456;2023-09-30T07:00:49;0.20;;;0.20;;
58621;SDS011;44389;51.578;5.456;2023-09-30T07:05:41;0.25;;;0.25;;
58621;SDS011;44389;51.578;5.456;2023-09-30T07:08:07;0.20;;;0.20;;
58621;SDS011;44389;51.578;5.456;2023-09-30T07:10:33;0.10;;;0.10;;
58621;SDS011;44389;51.578;5.456;2023-09-30T07:12:58;0.10;;;0.10;;
58621;SDS011;44389;51.578;5.456;2023-09-30T07:15:24;0.10;;;0.10;;
58621;SDS011;44389;51.578;5.456;2023-09-30T07:17:49;0.10;;;0.10;;
58621;SDS011;44389;51.578;5.456;2023-09-30T07:20:15;0.20;;;0.20;;
58621;SDS011;44389;51.578;5.456;2023-09-30T07:22:40;0.20;;;0.20;;
58621;SDS011;44389;51.578;5.456;2023-09-30T07:25:06;0.20;;;0.20;;
58621;SDS011;44389;51.578;5.456;2023-09-30T07:27:33;0.20;;;0.20;;
58621;SDS011;44389;51.578;5.456;2023-09-30T07:29:59;0.17;;;0.17;;
58621;SDS011;44389;51.578;5.456;2023-09-30T07:32:24;0.10;;;0.10;;
58621;SDS011;44389;51.578;5.456;2023-09-30T07:34:50;0.20;;;0.20;;
58621;SDS011;44389;51.578;5.456;2023-09-30T07:37:16;0.10;;;0.10;;
58621;SDS011;44389;51.578;5.456;2023-09-30T07:39:45;0.20;;;0.20;;
58621;SDS011;44389;51.578;5.456;2023-09-30T07:42:10;0.10;;;0.10;;
58621;SDS011;44389;51.578;5.456;2023-09-30T07:44:36;0.10;;;0.10;;
58621;SDS011;44389;51.578;5.456;2023-09-30T07:47:02;0.20;;;0.20;;
58621;SDS011;44389;51.578;5.456;2023-09-30T07:49:29;0.20;;;0.20;;
58621;SDS011;44389;51.578;5.456;2023-09-30T07:51:54;0.10;;;0.10;;
58621;SDS011;44389;51.578;5.456;2023-09-30T07:54:20;0.20;;;0.20;;
58621;SDS011;44389;51.578;5.456;2023-09-30T07:56:45;0.10;;;0.10;;
58621;SDS011;44389;51.578;5.456;2023-09-30T07:59:10;0.20;;;0.20;;
58621;SDS011;44389;51.578;5.456;2023-09-30T08:01:36;0.10;;;0.10;;
58621;SDS011;44389;51.578;5.456;2023-09-30T08:04:02;0.10;;;0.10;;
58621;SDS011;44389;51.578;5.456;2023-09-30T08:06:27;0.20;;;0.20;;
58621;SDS011;44389;51.578;5.456;2023-09-30T08:08:53;0.10;;;0.10;;
58621;SDS011;44389;51.578;5.456;2023-09-30T08:11:20;0.10;;;0.10;;
58621;SDS011;44389;51.578;5.456;2023-09-30T08:13:45;0.10;;;0.10;;
58621;SDS011;44389;51.578;5.456;2023-09-30T08:16:11;0.20;;;0.20;;
58621;SDS011;44389;51.578;5.456;2023-09-30T08:18:36;0.10;;;0.10;;
58621;SDS011;44389;51.578;5.456;2023-09-30T08:21:02;0.20;;;0.20;;
58621;SDS011;44389;51.578;5.456;2023-09-30T08:23:27;0.20;;;0.20;;
58621;SDS011;44389;51.578;5.456;2023-09-30T08:25:52;0.10;;;0.10;;
58621;SDS011;44389;51.578;5.456;2023-09-30T08:28:19;0.13;;;0.13;;
58621;SDS011;44389;51.578;5.456;2023-09-30T08:30:45;0.10;;;0.10;;
58621;SDS011;44389;51.578;5.456;2023-09-30T08:33:11;0.10;;;0.10;;
58621;SDS011;44389;51.578;5.456;2023-09-30T08:35:36;0.10;;;0.10;;
58621;SDS011;44389;51.578;5.456;2023-09-30T08:38:03;0.10;;;0.10;;
58621;SDS011;44389;51.578;5.456;2023-09-30T08:40:29;0.10;;;0.10;;
58621;SDS011;44389;51.578;5.456;2023-09-30T08:42:54;0.10;;;0.10;;
58621;SDS011;44389;51.578;5.456;2023-09-30T08:45:19;0.10;;;0.10;;
58621;SDS011;44389;51.578;5.456;2023-09-30T08:47:45;0.10;;;0.10;;
58621;SDS011;44389;51.578;5.456;2023-09-30T08:50:11;0.10;;;0.10;;
58621;SDS011;44389;51.578;5.456;2023-09-30T08:55:05;0.10;;;0.10;;
58621;SDS011;44389;51.578;5.456;2023-09-30T08:57:38;0.10;;;0.10;;
58621;SDS011;44389;51.578;5.456;2023-09-30T09:00:06;0.15;;;0.15;;
58621;SDS011;44389;51.578;5.456;2023-09-30T09:02:36;0.10;;;0.10;;
58621;SDS011;44389;51.578;5.456;2023-09-30T09:05:01;0.10;;;0.10;;
58621;SDS011;44389;51.578;5.456;2023-09-30T09:07:27;0.10;;;0.10;;
58621;SDS011;44389;51.578;5.456;2023-09-30T09:12:31;0.10;;;0.10;;
58621;SDS011;44389;51.578;5.456;2023-09-30T09:17:24;0.10;;;0.10;;
58621;SDS011;44389;51.578;5.456;2023-09-30T09:20:05;0.10;;;0.10;;
58621;SDS011;44389;51.578;5.456;2023-09-30T09:22:37;0.10;;;0.10;;
58621;SDS011;44389;51.578;5.456;2023-09-30T09:25:04;0.10;;;0.10;;
58621;SDS011;44389;51.578;5.456;2023-09-30T09:27:29;0.05;;;0.05;;
58621;SDS011;44389;51.578;5.456;2023-09-30T09:30:13;0.10;;;0.10;;
58621;SDS011;44389;51.578;5.456;2023-09-30T09:32:52;0.10;;;0.10;;
58621;SDS011;44389;51.578;5.456;2023-09-30T09:35:20;0.03;;;0.03;;
58621;SDS011;44389;51.578;5.456;2023-09-30T09:38:03;0.10;;;0.10;;
58621;SDS011;44389;51.578;5.456;2023-09-30T09:40:33;0.10;;;0.10;;
58621;SDS011;44389;51.578;5.456;2023-09-30T09:43:03;0.10;;;0.10;;
58621;SDS011;44389;51.578;5.456;2023-09-30T09:45:30;0.10;;;0.10;;
58621;SDS011;44389;51.578;5.456;2023-09-30T09:47:58;0.10;;;0.10;;
58621;SDS011;44389;51.578;5.456;2023-09-30T09:50:24;0.08;;;0.08;;
58621;SDS011;44389;51.578;5.456;2023-09-30T09:52:53;0.10;;;0.10;;
58621;SDS011;44389;51.578;5.456;2023-09-30T09:55:21;0.00;;;0.00;;
58621;SDS011;44389;51.578;5.456;2023-09-30T09:57:48;0.00;;;0.00;;
58621;SDS011;44389;51.578;5.456;2023-09-30T10:00:21;0.00;;;0.00;;
58621;SDS011;44389;51.578;5.456;2023-09-30T10:02:48;0.00;;;0.00;;
58621;SDS011;44389;51.578;5.456;2023-09-30T10:05:15;0.00;;;0.00;;
58621;SDS011;44389;51.578;5.456;2023-09-30T10:07:50;0.00;;;0.00;;
58621;SDS011;44389;51.578;5.456;2023-09-30T10:10:19;0.00;;;0.00;;
58621;SDS011;44389;51.578;5.456;2023-09-30T10:12:46;0.00;;;0.00;;
58621;SDS011;44389;51.578;5.456;2023-09-30T10:17:59;0.00;;;0.00;;
58621;SDS011;44389;51.578;5.456;2023-09-30T10:20:31;0.00;;;0.00;;
58621;SDS011;44389;51.578;5.456;2023-09-30T10:25:41;0.00;;;0.00;;
58621;SDS011;44389;51.578;5.456;2023-09-30T10:36:31;0.00;;;0.00;;
58621;SDS011;44389;51.578;5.456;2023-09-30T10:38:57;0.00;;;0.00;;
58621;SDS011;44389;51.578;5.456;2023-09-30T10:46:47;0.00;;;0.00;;
58621;SDS011;44389;51.578;5.456;2023-09-30T10:49:16;0.00;;;0.00;;
58621;SDS011;44389;51.578;5.456;2023-09-30T10:51:49;0.00;;;0.00;;
58621;SDS011;44389;51.578;5.456;2023-09-30T10:56:56;0.00;;;0.00;;
58621;SDS011;44389;51.578;5.456;2023-09-30T10:59:28;0.00;;;0.00;;
58621;SDS011;44389;51.578;5.456;2023-09-30T11:01:59;0.00;;;0.00;;
58621;SDS011;44389;51.578;5.456;2023-09-30T11:04:25;0.03;;;0.03;;
58621;SDS011;44389;51.578;5.456;2023-09-30T11:06:53;0.00;;;0.00;;
58621;SDS011;44389;51.578;5.456;2023-09-30T11:09:19;0.00;;;0.00;;
58621;SDS011;44389;51.578;5.456;2023-09-30T11:11:46;0.00;;;0.00;;
58621;SDS011;44389;51.578;5.456;2023-09-30T11:16:53;0.00;;;0.00;;
58621;SDS011;44389;51.578;5.456;2023-09-30T11:19:20;0.00;;;0.00;;
58621;SDS011;44389;51.578;5.456;2023-09-30T11:21:47;0.00;;;0.00;;
58621;SDS011;44389;51.578;5.456;2023-09-30T11:24:17;0.00;;;0.00;;
58621;SDS011;44389;51.578;5.456;2023-09-30T11:26:44;0.00;;;0.00;;
58621;SDS011;44389;51.578;5.456;2023-09-30T11:29:17;0.00;;;0.00;;
58621;SDS011;44389;51.578;5.456;2023-09-30T11:31:43;0.00;;;0.00;;
58621;SDS011;44389;51.578;5.456;2023-09-30T11:34:12;0.00;;;0.00;;
58621;SDS011;44389;51.578;5.456;2023-09-30T11:36:38;0.00;;;0.00;;
58621;SDS011;44389;51.578;5.456;2023-09-30T11:39:07;0.00;;;0.00;;
58621;SDS011;44389;51.578;5.456;2023-09-30T11:41:38;0.00;;;0.00;;
58621;SDS011;44389;51.578;5.456;2023-09-30T11:46:33;0.00;;;0.00;;
58621;SDS011;44389;51.578;5.456;2023-09-30T11:52:04;0.00;;;0.00;;
58621;SDS011;44389;51.578;5.456;2023-09-30T11:54:40;0.00;;;0.00;;
58621;SDS011;44389;51.578;5.456;2023-09-30T11:57:09;0.00;;;0.00;;
58621;SDS011;44389;51.578;5.456;2023-09-30T11:59:36;0.00;;;0.00;;
58621;SDS011;44389;51.578;5.456;2023-09-30T12:02:04;0.00;;;0.00;;
58621;SDS011;44389;51.578;5.456;2023-09-30T12:04:36;0.00;;;0.00;;
58621;SDS011;44389;51.578;5.456;2023-09-30T12:07:02;0.00;;;0.00;;
58621;SDS011;44389;51.578;5.456;2023-09-30T12:09:27;0.00;;;0.00;;
58621;SDS011;44389;51.578;5.456;2023-09-30T12:11:53;0.00;;;0.00;;
58621;SDS011;44389;51.578;5.456;2023-09-30T12:14:20;0.00;;;0.00;;
58621;SDS011;44389;51.578;5.456;2023-09-30T12:16:46;0.00;;;0.00;;
58621;SDS011;44389;51.578;5.456;2023-09-30T12:19:16;0.00;;;0.00;;
58621;SDS011;44389;51.578;5.456;2023-09-30T12:21:43;0.00;;;0.00;;
58621;SDS011;44389;51.578;5.456;2023-09-30T12:24:12;0.00;;;0.00;;
58621;SDS011;44389;51.578;5.456;2023-09-30T12:26:42;0.00;;;0.00;;
58621;SDS011;44389;51.578;5.456;2023-09-30T12:29:10;0.00;;;0.00;;
58621;SDS011;44389;51.578;5.456;2023-09-30T12:31:35;0.00;;;0.00;;
58621;SDS011;44389;51.578;5.456;2023-09-30T12:34:01;0.00;;;0.00;;
58621;SDS011;44389;51.578;5.456;2023-09-30T12:36:27;0.00;;;0.00;;
58621;SDS011;44389;51.578;5.456;2023-09-30T12:38:52;0.00;;;0.00;;
58621;SDS011;44389;51.578;5.456;2023-09-30T12:41:18;0.00;;;0.00;;
58621;SDS011;44389;51.578;5.456;2023-09-30T12:43:44;0.00;;;0.00;;
58621;SDS011;44389;51.578;5.456;2023-09-30T12:46:10;0.00;;;0.00;;
58621;SDS011;44389;51.578;5.456;2023-09-30T12:48:38;0.00;;;0.00;;
58621;SDS011;44389;51.578;5.456;2023-09-30T12:51:04;0.00;;;0.00;;
58621;SDS011;44389;51.578;5.456;2023-09-30T12:53:31;0.00;;;0.00;;
58621;SDS011;44389;51.578;5.456;2023-09-30T12:55:57;0.00;;;0.00;;
58621;SDS011;44389;51.578;5.456;2023-09-30T12:58:22;0.00;;;0.00;;
58621;SDS011;44389;51.578;5.456;2023-09-30T13:00:47;0.00;;;0.00;;
58621;SDS011;44389;51.578;5.456;2023-09-30T13:03:13;0.00;;;0.00;;
58621;SDS011;44389;51.578;5.456;2023-09-30T13:08:05;0.00;;;0.00;;
58621;SDS011;44389;51.578;5.456;2023-09-30T13:10:30;0.00;;;0.00;;
58621;SDS011;44389;51.578;5.456;2023-09-30T13:12:56;0.00;;;0.00;;
58621;SDS011;44389;51.578;5.456;2023-09-30T13:15:21;0.00;;;0.00;;
58621;SDS011;44389;51.578;5.456;2023-09-30T13:17:48;0.00;;;0.00;;
58621;SDS011;44389;51.578;5.456;2023-09-30T13:20:13;0.00;;;0.00;;
58621;SDS011;44389;51.578;5.456;2023-09-30T13:22:39;0.00;;;0.00;;
58621;SDS011;44389;51.578;5.456;2023-09-30T13:25:04;0.00;;;0.00;;
58621;SDS011;44389;51.578;5.456;2023-09-30T13:27:31;0.00;;;0.00;;
58621;SDS011;44389;51.578;5.456;2023-09-30T13:29:57;0.00;;;0.00;;
58621;SDS011;44389;51.578;5.456;2023-09-30T13:32:23;0.00;;;0.00;;
58621;SDS011;44389;51.578;5.456;2023-09-30T13:34:50;0.00;;;0.00;;
58621;SDS011;44389;51.578;5.456;2023-09-30T13:37:16;0.00;;;0.00;;
58621;SDS011;44389;51.578;5.456;2023-09-30T13:39:41;0.00;;;0.00;;
58621;SDS011;44389;51.578;5.456;2023-09-30T13:42:06;0.00;;;0.00;;
58621;SDS011;44389;51.578;5.456;2023-09-30T13:44:32;0.00;;;0.00;;
58621;SDS011;44389;51.578;5.456;2023-09-30T13:46:57;0.00;;;0.00;;
58621;SDS011;44389;51.578;5.456;2023-09-30T13:49:23;0.00;;;0.00;;
58621;SDS011;44389;51.578;5.456;2023-09-30T13:51:48;0.00;;;0.00;;
58621;SDS011;44389;51.578;5.456;2023-09-30T13:54:13;0.00;;;0.00;;
58621;SDS011;44389;51.578;5.456;2023-09-30T13:56:40;0.00;;;0.00;;
58621;SDS011;44389;51.578;5.456;2023-09-30T13:59:05;0.00;;;0.00;;
58621;SDS011;44389;51.578;5.456;2023-09-30T14:01:31;0.03;;;0.03;;
58621;SDS011;44389;51.578;5.456;2023-09-30T14:03:56;0.00;;;0.00;;
58621;SDS011;44389;51.578;5.456;2023-09-30T14:06:23;0.00;;;0.00;;
58621;SDS011;44389;51.578;5.456;2023-09-30T14:08:48;0.00;;;0.00;;
58621;SDS011;44389;51.578;5.456;2023-09-30T14:11:13;0.00;;;0.00;;
58621;SDS011;44389;51.578;5.456;2023-09-30T14:13:39;0.00;;;0.00;;
58621;SDS011;44389;51.578;5.456;2023-09-30T14:16:04;0.00;;;0.00;;
58621;SDS011;44389;51.578;5.456;2023-09-30T14:18:30;0.00;;;0.00;;
58621;SDS011;44389;51.578;5.456;2023-09-30T14:20:55;0.00;;;0.00;;
58621;SDS011;44389;51.578;5.456;2023-09-30T14:23:21;0.00;;;0.00;;
58621;SDS011;44389;51.578;5.456;2023-09-30T14:25:46;0.00;;;0.00;;
58621;SDS011;44389;51.578;5.456;2023-09-30T14:28:11;0.00;;;0.00;;
58621;SDS011;44389;51.578;5.456;2023-09-30T14:30:38;0.08;;;0.08;;
58621;SDS011;44389;51.578;5.456;2023-09-30T14:33:04;0.00;;;0.00;;
58621;SDS011;44389;51.578;5.456;2023-09-30T14:35:29;0.00;;;0.00;;
58621;SDS011;44389;51.578;5.456;2023-09-30T14:37:55;0.00;;;0.00;;
58621;SDS011;44389;51.578;5.456;2023-09-30T14:40:21;0.00;;;0.00;;
58621;SDS011;44389;51.578;5.456;2023-09-30T14:42:47;0.03;;;0.03;;
58621;SDS011;44389;51.578;5.456;2023-09-30T14:45:12;0.00;;;0.00;;
58621;SDS011;44389;51.578;5.456;2023-09-30T14:47:37;0.00;;;0.00;;
58621;SDS011;44389;51.578;5.456;2023-09-30T14:50:05;0.00;;;0.00;;
58621;SDS011;44389;51.578;5.456;2023-09-30T14:52:32;0.00;;;0.00;;
58621;SDS011;44389;51.578;5.456;2023-09-30T14:54:57;0.10;;;0.10;;
58621;SDS011;44389;51.578;5.456;2023-09-30T14:57:22;0.05;;;0.05;;
58621;SDS011;44389;51.578;5.456;2023-09-30T14:59:49;0.00;;;0.00;;
58621;SDS011;44389;51.578;5.456;2023-09-30T15:02:15;0.00;;;0.00;;
58621;SDS011;44389;51.578;5.456;2023-09-30T15:04:40;0.00;;;0.00;;
58621;SDS011;44389;51.578;5.456;2023-09-30T15:07:05;0.00;;;0.00;;
58621;SDS011;44389;51.578;5.456;2023-09-30T15:09:30;0.00;;;0.00;;
58621;SDS011;44389;51.578;5.456;2023-09-30T15:11:56;0.00;;;0.00;;
58621;SDS011;44389;51.578;5.456;2023-09-30T15:14:21;0.10;;;0.10;;
58621;SDS011;44389;51.578;5.456;2023-09-30T15:16:47;0.10;;;0.10;;
58621;SDS011;44389;51.578;5.456;2023-09-30T15:19:13;0.00;;;0.00;;
58621;SDS011;44389;51.578;5.456;2023-09-30T15:21:38;0.03;;;0.03;;
58621;SDS011;44389;51.578;5.456;2023-09-30T15:24:03;0.00;;;0.00;;
58621;SDS011;44389;51.578;5.456;2023-09-30T15:26:33;0.10;;;0.10;;
58621;SDS011;44389;51.578;5.456;2023-09-30T15:28:59;0.00;;;0.00;;